Time;durP1;ratioP1;P1;durP2;ratioP2;P2;SDS_P1;SDS_P2;PMS_P1;PMS_P2;Temp;Humidity;BMP_temperature;BMP_pressure;BME280_temperature;BME280_humidity;BME280_pressure;Samples;Min_cycle;Max_cycle;Signal;HPM_P1;HPM_P2
2021/03/22 00:00:11;;;;;;;23.97;3.73;;;5.60;1.00;;;;;;5095319;28;20182;-69
2021/03/22 00:02:37;;;;;;;14.52;3.08;;;5.90;1.00;;;;;;5094856;28;20187;-69
2021/03/22 00:05:04;;;;;;;12.00;3.80;;;6.10;1.00;;;;;;5094823;28;20167;-69
2021/03/22 00:07:29;;;;;;;24.38;4.32;;;5.70;1.00;;;;;;5094821;28;20164;-69
2021/03/22 00:09:55;;;;;;;17.07;3.53;;;5.80;1.00;;;;;;5094586;28;20211;-68
2021/03/22 00:12:20;;;;;;;15.73;3.30;;;5.90;1.00;;;;;;5094705;28;20725;-69
2021/03/22 00:14:46;;;;;;;19.93;4.50;;;5.50;1.00;;;;;;5093428;28;20179;-69
2021/03/22 00:17:12;;;;;;;23.97;4.73;;;5.90;1.00;;;;;;5094908;28;20171;-69
2021/03/22 00:19:37;;;;;;;20.90;3.50;;;5.90;1.00;;;;;;5094565;28;20229;-69
2021/03/22 00:22:03;;;;;;;18.70;3.27;;;6.00;1.00;;;;;;5094511;28;20227;-69
2021/03/22 00:24:28;;;;;;;19.57;4.57;;;5.90;1.00;;;;;;5094472;28;20239;-69
2021/03/22 00:26:54;;;;;;;11.50;2.97;;;5.90;1.00;;;;;;5094617;28;20179;-69
2021/03/22 00:29:19;;;;;;;25.57;3.73;;;6.00;1.00;;;;;;5094307;28;20597;-68
2021/03/22 00:31:45;;;;;;;25.33;3.50;;;6.00;1.00;;;;;;5093228;28;20183;-68
2021/03/22 00:34:10;;;;;;;16.13;3.30;;;6.10;1.00;;;;;;5094333;28;20250;-68
2021/03/22 00:36:36;;;;;;;16.17;3.53;;;5.90;1.00;;;;;;5094548;28;20221;-69
2021/03/22 00:39:02;;;;;;;16.07;4.30;;;5.80;1.00;;;;;;5094265;28;20258;-68
2021/03/22 00:41:28;;;;;;;21.23;3.83;;;5.80;1.00;;;;;;5094115;28;20246;-69
2021/03/22 00:43:53;;;;;;;16.20;4.73;;;5.90;1.00;;;;;;5094206;28;20205;-68
2021/03/22 00:46:19;;;;;;;19.43;4.20;;;5.50;1.00;;;;;;5094091;28;20213;-69
2021/03/22 00:48:44;;;;;;;15.53;3.43;;;5.60;1.00;;;;;;5094234;28;20195;-69
2021/03/22 00:51:10;;;;;;;17.17;3.17;;;5.80;1.00;;;;;;5093973;28;20173;-69
2021/03/22 00:53:36;;;;;;;18.53;3.70;;;5.90;1.00;;;;;;5094205;28;20282;-69
2021/03/22 00:56:02;;;;;;;21.80;4.10;;;5.60;1.00;;;;;;5093889;28;20170;-69
2021/03/22 00:58:28;;;;;;;18.88;3.17;;;5.40;1.00;;;;;;5093861;28;20258;-69
2021/03/22 01:00:57;;;;;;;11.87;3.20;;;5.70;1.00;;;;;;5093810;28;20214;-69
2021/03/22 01:03:29;;;;;;;21.83;4.85;;;5.80;1.00;;;;;;5093651;28;20256;-69
2021/03/22 01:05:56;;;;;;;14.18;3.28;;;5.70;1.00;;;;;;5094017;28;20184;-69
2021/03/22 01:08:24;;;;;;;20.95;3.80;;;5.70;1.00;;;;;;5093402;28;20232;-69
2021/03/22 01:11:09;;;;;;;16.98;3.70;;;5.80;1.00;;;;;;5093686;28;20209;-69
2021/03/22 01:13:36;;;;;;;17.45;4.85;;;5.70;1.00;;;;;;5093837;28;20690;-69
2021/03/22 01:16:03;;;;;;;10.05;5.10;;;5.80;1.00;;;;;;5093455;28;20257;-69
2021/03/22 01:18:33;;;;;;;22.55;3.33;;;5.50;1.00;;;;;;5093550;28;20176;-69
2021/03/22 01:21:08;;;;;;;25.52;4.20;;;5.60;1.00;;;;;;5094105;28;20697;-68
2021/03/22 01:23:33;;;;;;;14.52;3.38;;;5.80;1.00;;;;;;5093587;28;20202;-69
2021/03/22 01:25:59;;;;;;;19.90;3.60;;;5.80;1.00;;;;;;5093605;28;20293;-69
2021/03/22 01:28:24;;;;;;;16.30;3.47;;;5.80;1.00;;;;;;5093204;28;20628;-69
2021/03/22 01:30:53;;;;;;;18.00;3.73;;;5.40;1.00;;;;;;5091933;28;20636;-69
2021/03/22 01:33:25;;;;;;;17.30;3.40;;;5.50;1.00;;;;;;5093131;28;20262;-68
2021/03/22 01:35:52;;;;;;;10.70;3.00;;;5.80;1.00;;;;;;5093523;28;20175;-69
2021/03/22 01:38:17;;;;;;;17.95;3.03;;;5.70;1.00;;;;;;5091992;28;20183;-70
2021/03/22 01:41:02;;;;;;;15.33;3.13;;;5.40;1.00;;;;;;5093157;28;20523;-69
2021/03/22 01:43:55;;;;;;;16.40;3.38;;;5.70;1.00;;;;;;5092899;28;20241;-69
2021/03/22 01:46:22;;;;;;;14.82;3.92;;;5.30;1.00;;;;;;5091894;28;20201;-69
2021/03/22 01:48:48;;;;;;;20.05;3.15;;;5.20;22.40;;;;;;5093474;28;20195;-68
2021/03/22 01:51:13;;;;;;;15.63;2.83;;;5.50;82.40;;;;;;5093592;28;20501;-69
2021/03/22 01:53:39;;;;;;;15.10;3.43;;;5.50;13.60;;;;;;5092941;28;20215;-70
2021/03/22 01:56:42;;;;;;;10.93;3.53;;;5.60;25.90;;;;;;5092969;28;20167;-69
2021/03/22 01:59:10;;;;;;;17.63;3.63;;;5.40;1.00;;;;;;5089917;28;20190;-68
2021/03/22 02:01:36;;;;;;;22.25;3.67;;;5.30;87.00;;;;;;5092860;28;20624;-70
2021/03/22 02:04:02;;;;;;;16.52;3.08;;;5.60;53.80;;;;;;5092837;28;20191;-69
2021/03/22 02:06:28;;;;;;;12.55;3.03;;;5.80;1.00;;;;;;5092833;28;20583;-69
2021/03/22 02:08:54;;;;;;;28.83;5.20;;;5.70;15.00;;;;;;5092746;28;20256;-69
2021/03/22 02:11:26;;;;;;;16.15;3.47;;;5.90;1.00;;;;;;5093084;28;20168;-69
2021/03/22 02:13:55;;;;;;;16.05;3.08;;;5.90;1.00;;;;;;5093123;28;20238;-69
2021/03/22 02:16:33;;;;;;;16.50;3.35;;;5.90;1.00;;;;;;5092787;28;20205;-69
2021/03/22 02:19:35;;;;;;;22.90;3.70;;;5.80;1.00;;;;;;5093133;28;20250;-68
2021/03/22 02:22:38;;;;;;;7.80;2.58;;;5.60;1.00;;;;;;5092902;28;20187;-69
2021/03/22 02:25:35;;;;;;;11.75;3.22;;;5.70;26.50;;;;;;5092990;28;20770;-69
2021/03/22 02:28:24;;;;;;;22.27;3.30;;;5.80;1.00;;;;;;5092887;28;20206;-69
2021/03/22 02:31:22;;;;;;;19.17;3.40;;;5.80;1.00;;;;;;5092922;28;20543;-69
2021/03/22 02:33:59;;;;;;;14.18;3.53;;;5.60;39.60;;;;;;5092830;28;20202;-69
2021/03/22 02:36:48;;;;;;;8.80;3.33;;;5.30;72.50;;;;;;5092799;28;20557;-69
2021/03/22 02:39:14;;;;;;;12.35;2.97;;;5.20;99.90;;;;;;5091355;28;20168;-69
2021/03/22 02:41:52;;;;;;;22.45;4.43;;;5.10;99.90;;;;;;5092701;28;20171;-69
2021/03/22 02:44:24;;;;;;;22.33;4.57;;;5.00;99.90;;;;;;5091280;28;20167;-69
2021/03/22 02:47:02;;;;;;;16.45;4.38;;;5.20;99.90;;;;;;5092414;28;20187;-69
2021/03/22 02:49:30;;;;;;;10.60;3.67;;;5.20;99.90;;;;;;5092370;28;20691;-69
2021/03/22 02:52:23;;;;;;;17.25;5.07;;;5.40;99.90;;;;;;5092314;28;20257;-69
2021/03/22 02:54:57;;;;;;;19.77;4.55;;;5.30;99.90;;;;;;5093173;28;20158;-70
2021/03/22 02:57:46;;;;;;;18.83;4.45;;;5.30;99.90;;;;;;5096325;28;20640;-69
2021/03/22 03:00:17;;;;;;;24.98;5.10;;;5.00;99.90;;;;;;5096653;28;20239;-69
2021/03/22 03:02:45;;;;;;;26.60;5.20;;;5.20;1.00;;;;;;5094816;28;20191;-69
2021/03/22 03:05:13;;;;;;;20.08;5.57;;;5.00;1.00;;;;;;5096263;28;20567;-68
2021/03/22 03:07:40;;;;;;;16.40;4.75;;;5.10;1.00;;;;;;5096222;28;20168;-69
2021/03/22 03:10:08;;;;;;;16.50;4.20;;;5.10;1.00;;;;;;5096128;28;20606;-69
2021/03/22 03:12:34;;;;;;;17.77;4.97;;;5.50;1.00;;;;;;5095964;28;20175;-69
2021/03/22 03:14:59;;;;;;;21.90;5.70;;;5.80;99.90;;;;;;5096344;28;20644;-69
2021/03/22 03:17:25;;;;;;;20.13;5.87;;;5.90;99.90;;;;;;5095997;28;20168;-69
2021/03/22 03:19:52;;;;;;;17.53;4.50;;;5.70;99.90;;;;;;5095913;28;20251;-70
2021/03/22 03:22:19;;;;;;;19.15;4.38;;;5.50;99.90;;;;;;5095764;28;20274;-69
2021/03/22 03:24:45;;;;;;;26.40;5.65;;;5.40;1.00;;;;;;5095888;28;20172;-69
2021/03/22 03:27:12;;;;;;;19.03;7.70;;;5.40;1.00;;;;;;5095857;28;20172;-69
2021/03/22 03:29:39;;;;;;;21.83;8.15;;;5.70;1.00;;;;;;5095741;28;20456;-70
2021/03/22 03:32:07;;;;;;;18.67;5.85;;;5.60;99.90;;;;;;5095773;28;20183;-70
2021/03/22 03:34:33;;;;;;;32.05;10.73;;;5.90;99.90;;;;;;5095986;28;20163;-69
2021/03/22 03:36:58;;;;;;;15.18;5.57;;;5.80;99.90;;;;;;5094426;28;20182;-70
2021/03/22 03:39:24;;;;;;;25.63;7.60;;;5.80;99.90;;;;;;5095935;28;20168;-70
2021/03/22 03:41:50;;;;;;;18.80;6.20;;;5.40;1.00;;;;;;5095536;28;20194;-69
2021/03/22 03:44:16;;;;;;;21.60;6.60;;;5.10;1.00;;;;;;5095888;28;20254;-69
2021/03/22 03:46:42;;;;;;;28.63;7.45;;;5.30;50.70;;;;;;5094185;28;20167;-69
2021/03/22 03:49:08;;;;;;;18.27;6.13;;;5.50;1.00;;;;;;5094028;28;20739;-69
2021/03/22 03:51:36;;;;;;;28.73;7.60;;;5.50;99.90;;;;;;5095605;28;20250;-69
2021/03/22 03:54:02;;;;;;;28.40;7.35;;;5.10;1.00;;;;;;5095277;28;20388;-69
2021/03/22 03:56:28;;;;;;;23.70;8.02;;;5.10;46.50;;;;;;5095306;28;20589;-69
2021/03/22 03:58:55;;;;;;;24.93;7.47;;;5.10;64.50;;;;;;5095256;28;20167;-69
2021/03/22 04:01:20;;;;;;;25.85;10.30;;;5.00;27.90;;;;;;5095272;28;20228;-69
2021/03/22 04:03:46;;;;;;;27.60;9.17;;;5.10;1.00;;;;;;5095026;28;20590;-69
2021/03/22 04:06:16;;;;;;;25.20;10.40;;;5.40;1.00;;;;;;5095548;28;20186;-69
2021/03/22 04:08:56;;;;;;;22.42;7.43;;;5.40;1.00;;;;;;5094799;28;20207;-69
2021/03/22 04:11:27;;;;;;;50.15;9.60;;;5.40;1.00;;;;;;5095112;28;20617;-69
2021/03/22 04:13:54;;;;;;;22.65;8.30;;;5.40;99.90;;;;;;5095285;28;20163;-68
2021/03/22 04:16:22;;;;;;;21.73;8.95;;;5.20;1.00;;;;;;5094837;28;20248;-69
2021/03/22 04:18:48;;;;;;;24.23;8.57;;;5.60;1.00;;;;;;5094944;28;20228;-69
2021/03/22 04:21:17;;;;;;;24.63;8.43;;;5.70;99.90;;;;;;5095083;28;20174;-69
2021/03/22 04:23:44;;;;;;;25.23;8.90;;;5.30;99.90;;;;;;5094751;28;20659;-69
2021/03/22 04:26:10;;;;;;;25.23;9.20;;;5.50;1.00;;;;;;5095088;28;20579;-69
2021/03/22 04:28:36;;;;;;;25.10;9.55;;;5.40;99.90;;;;;;5094714;28;20214;-68
2021/03/22 04:31:03;;;;;;;23.15;9.93;;;5.40;1.00;;;;;;5093377;28;20163;-69
2021/03/22 04:33:29;;;;;;;27.75;9.82;;;5.10;1.00;;;;;;5094803;28;20262;-69
2021/03/22 04:35:55;;;;;;;31.08;9.20;;;5.30;4.70;;;;;;5095780;28;20173;-69
2021/03/22 04:38:21;;;;;;;21.03;9.60;;;5.50;1.00;;;;;;5095093;28;20168;-69
2021/03/22 04:40:47;;;;;;;25.30;9.10;;;5.60;1.00;;;;;;5095300;28;20171;-69
2021/03/22 04:43:13;;;;;;;21.93;9.23;;;5.40;99.90;;;;;;5094541;28;20442;-69
2021/03/22 04:45:39;;;;;;;20.52;8.77;;;5.30;1.00;;;;;;5094406;28;20501;-68
2021/03/22 04:48:05;;;;;;;21.33;9.40;;;5.30;1.00;;;;;;5094293;28;20660;-69
2021/03/22 04:50:31;;;;;;;24.52;9.32;;;5.40;1.00;;;;;;5094792;28;20167;-69
2021/03/22 04:52:57;;;;;;;36.30;10.17;;;5.50;1.00;;;;;;5094308;28;20251;-69
2021/03/22 04:55:24;;;;;;;24.77;11.18;;;5.20;1.00;;;;;;5094306;28;20624;-69
2021/03/22 04:57:50;;;;;;;32.22;11.52;;;5.00;99.90;;;;;;5094479;28;20171;-69
2021/03/22 05:00:38;;;;;;;27.40;10.77;;;5.00;1.00;;;;;;5094124;28;20171;-68
2021/03/22 05:03:05;;;;;;;28.77;10.60;;;5.50;99.90;;;;;;5093068;28;20206;-69
2021/03/22 05:05:31;;;;;;;24.55;10.23;;;5.60;19.50;;;;;;5094245;28;20163;-69
2021/03/22 05:07:57;;;;;;;25.10;11.47;;;5.40;1.00;;;;;;5093739;28;20160;-68
2021/03/22 05:10:27;;;;;;;28.90;10.87;;;5.20;99.90;;;;;;5093967;28;20198;-69
2021/03/22 05:12:53;;;;;;;23.83;10.30;;;5.20;46.50;;;;;;5094124;28;20190;-69
2021/03/22 05:15:19;;;;;;;20.50;9.70;;;5.20;1.00;;;;;;5093803;28;20246;-68
2021/03/22 05:17:45;;;;;;;34.70;11.82;;;5.40;44.20;;;;;;5093174;28;20171;-68
2021/03/22 05:20:27;;;;;;;35.67;12.88;;;5.60;99.90;;;;;;5092484;28;20606;-70
2021/03/22 05:22:53;;;;;;;38.22;11.60;;;5.10;99.90;;;;;;5093695;28;20190;-68
2021/03/22 05:25:19;;;;;;;35.63;12.77;;;4.90;1.00;;;;;;5093597;28;20171;-68
2021/03/22 05:27:48;;;;;;;32.22;13.02;;;4.80;99.90;;;;;;5093817;28;20175;-69
2021/03/22 05:30:15;;;;;;;23.55;13.40;;;4.80;91.30;;;;;;5092183;28;20282;-69
2021/03/22 05:32:41;;;;;;;43.13;14.35;;;5.20;99.90;;;;;;5093312;28;20198;-69
2021/03/22 05:35:13;;;;;;;33.33;13.60;;;5.40;1.00;;;;;;5093451;28;20308;-69
2021/03/22 05:37:40;;;;;;;28.80;13.38;;;5.10;99.90;;;;;;5093299;28;20163;-68
2021/03/22 05:40:09;;;;;;;39.25;14.77;;;4.80;80.60;;;;;;5093433;28;20706;-68
2021/03/22 05:43:19;;;;;;;32.13;13.00;;;4.80;1.00;;;;;;5093201;28;20195;-69
2021/03/22 05:46:01;;;;;;;34.45;13.82;;;5.00;99.90;;;;;;5011373;28;20244;-69
2021/03/22 05:48:53;;;;;;;37.70;15.38;;;5.40;99.90;;;;;;5085228;28;20207;-69
2021/03/22 05:51:39;;;;;;;38.15;17.02;;;5.40;99.90;;;;;;5093383;28;20156;-69
2021/03/22 05:54:33;;;;;;;35.13;15.68;;;5.00;1.00;;;;;;5078947;28;20186;-69
2021/03/22 05:57:01;;;;;;;36.22;15.20;;;5.00;99.90;;;;;;5093056;28;20239;-69
2021/03/22 05:59:44;;;;;;;33.33;15.20;;;5.30;99.90;;;;;;5092824;28;20171;-69
2021/03/22 06:02:31;;;;;;;30.90;15.65;;;5.40;99.90;;;;;;5092713;28;20290;-69
2021/03/22 06:05:03;;;;;;;31.80;15.55;;;5.20;1.00;;;;;;5093126;28;20601;-69
2021/03/22 06:07:32;;;;;;;31.38;15.50;;;5.30;1.00;;;;;;5093106;28;20270;-69
2021/03/22 06:10:05;;;;;;;27.35;13.93;;;5.30;99.90;;;;;;5092585;28;20225;-69
2021/03/22 06:12:42;;;;;;;29.50;14.50;;;5.50;1.00;;;;;;5092491;28;20679;-69
2021/03/22 06:15:21;;;;;;;27.20;13.50;;;5.60;1.00;;;;;;5092828;28;20512;-68
2021/03/22 06:18:08;;;;;;;31.63;13.98;;;5.20;1.00;;;;;;5092668;28;20154;-69
2021/03/22 06:20:37;;;;;;;29.25;14.10;;;5.20;99.90;;;;;;5092002;28;20162;-69
2021/03/22 06:23:17;;;;;;;33.22;16.20;;;5.10;99.90;;;;;;5092712;28;20679;-69
2021/03/22 06:25:43;;;;;;;35.78;14.95;;;5.30;1.00;;;;;;5093109;28;20745;-69
2021/03/22 06:28:14;;;;;;;31.50;13.70;;;5.30;99.90;;;;;;5092509;28;20171;-70
2021/03/22 06:31:09;;;;;;;34.45;11.73;;;5.70;99.90;;;;;;5094459;28;20536;-69
2021/03/22 06:33:41;;;;;;;35.88;14.35;;;5.20;1.00;;;;;;5083533;28;20199;-69
2021/03/22 06:36:08;;;;;;;27.92;13.55;;;5.30;99.90;;;;;;5096776;28;20190;-69
2021/03/22 06:38:34;;;;;;;24.23;12.55;;;5.30;99.90;;;;;;5096755;28;20171;-70
2021/03/22 06:41:31;;;;;;;27.07;11.10;;;5.20;99.90;;;;;;5096587;28;20592;-69
2021/03/22 06:43:59;;;;;;;33.78;12.75;;;5.10;99.90;;;;;;5096410;28;20248;-70
2021/03/22 06:46:27;;;;;;;27.42;11.05;;;5.20;1.00;;;;;;5096426;28;20171;-70
2021/03/22 06:49:05;;;;;;;27.27;11.93;;;5.10;1.00;;;;;;5096386;28;20659;-70
2021/03/22 06:51:31;;;;;;;27.17;10.35;;;5.00;1.00;;;;;;5096421;28;20194;-70
2021/03/22 06:54:00;;;;;;;33.95;11.32;;;5.30;1.00;;;;;;5096200;28;20171;-70
2021/03/22 06:56:36;;;;;;;24.13;11.63;;;5.30;99.90;;;;;;5096014;28;20163;-70
2021/03/22 06:59:21;;;;;;;28.02;12.70;;;5.20;99.90;;;;;;5096585;28;20201;-70
2021/03/22 07:01:49;;;;;;;30.17;11.38;;;5.20;99.90;;;;;;5096010;28;20196;-70
2021/03/22 07:04:28;;;;;;;25.70;11.68;;;5.10;99.90;;;;;;5096188;28;20172;-70
2021/03/22 07:07:18;;;;;;;30.42;10.80;;;5.00;99.90;;;;;;5094474;28;20277;-70
2021/03/22 07:09:59;;;;;;;26.42;12.50;;;5.00;1.70;;;;;;5086315;28;20222;-69
2021/03/22 07:12:31;;;;;;;27.25;11.90;;;5.00;1.00;;;;;;5096566;28;20253;-69
2021/03/22 07:15:16;;;;;;;23.45;12.40;;;5.00;1.00;;;;;;5096230;28;20162;-69
2021/03/22 07:17:42;;;;;;;37.40;15.02;;;5.00;67.00;;;;;;5095721;28;20171;-69
2021/03/22 07:20:14;;;;;;;27.15;14.02;;;5.20;1.00;;;;;;5095770;28;20212;-68
2021/03/22 07:22:40;;;;;;;32.65;13.02;;;5.20;99.90;;;;;;5095684;28;20727;-69
2021/03/22 07:25:49;;;;;;;26.30;13.57;;;5.10;49.20;;;;;;5094346;28;20199;-69
2021/03/22 07:28:26;;;;;;;30.30;12.60;;;5.20;99.90;;;;;;5093339;28;20479;-69
2021/03/22 07:31:02;;;;;;;26.80;12.57;;;5.30;99.90;;;;;;5096311;28;20147;-70
2021/03/22 07:34:11;;;;;;;26.73;12.95;;;5.60;99.90;;;;;;5094322;28;20191;-72
2021/03/22 07:37:07;;;;;;;25.60;12.10;;;5.30;1.00;;;;;;5056872;28;20590;-71
2021/03/22 07:39:47;;;;;;;28.10;14.75;;;5.30;99.90;;;;;;5095615;28;20152;-71
2021/03/22 07:42:37;;;;;;;25.85;11.65;;;5.50;99.90;;;;;;5093791;28;20187;-70
2021/03/22 07:45:25;;;;;;;29.02;11.50;;;5.40;1.00;;;;;;5095783;28;20156;-70
2021/03/22 07:48:32;;;;;;;28.70;12.50;;;5.50;99.90;;;;;;5096556;28;20207;-71
2021/03/22 07:51:51;;;;;;;20.95;9.93;;;6.00;99.90;;;;;;5030094;28;20194;-71
2021/03/22 07:54:31;;;;;;;27.13;13.65;;;5.80;1.00;;;;;;5013119;28;20170;-69
2021/03/22 07:57:22;;;;;;;215.57;154.73;;;5.90;2.60;;;;;;5014024;28;20166;-69
2021/03/22 08:00:09;;;;;;;47.90;22.75;;;6.20;1.00;;;;;;5082288;28;20274;-70
2021/03/22 08:02:41;;;;;;;11.30;7.25;;;6.40;99.90;;;;;;5094996;28;20187;-72
2021/03/22 08:05:38;;;;;;;16.17;7.05;;;5.80;99.90;;;;;;5094862;28;20163;-71
2021/03/22 08:08:33;;;;;;;20.00;7.00;;;6.10;99.90;;;;;;5076555;28;20202;-72
2021/03/22 08:11:04;;;;;;;1545.90;776.75;;;6.30;99.90;;;;;;5094794;28;20148;-70
2021/03/22 08:13:41;;;;;;;36.15;19.45;;;6.60;99.90;;;;;;5094978;28;20547;-71
2021/03/22 08:16:55;;;;;;;17.80;6.13;;;7.00;97.70;;;;;;5095025;28;20172;-72
2021/03/22 08:19:26;;;;;;;8.63;5.45;;;6.70;1.00;;;;;;5094771;28;20167;-72
2021/03/22 08:22:10;;;;;;;10.85;5.90;;;6.40;94.20;;;;;;5093225;28;20675;-70
2021/03/22 08:25:15;;;;;;;15.88;7.20;;;6.30;99.90;;;;;;5093624;28;20577;-69
2021/03/22 08:27:47;;;;;;;10.50;4.85;;;6.50;99.90;;;;;;5064164;28;20533;-75
2021/03/22 08:30:26;;;;;;;19.90;6.18;;;6.80;1.00;;;;;;5095055;28;20290;-72
2021/03/22 08:33:00;;;;;;;7.45;4.35;;;6.50;1.00;;;;;;5094755;28;20183;-70
2021/03/22 08:35:35;;;;;;;9.48;4.70;;;6.70;1.00;;;;;;5094576;28;20520;-74
2021/03/22 08:38:04;;;;;;;11.20;5.25;;;6.80;1.00;;;;;;5095046;28;20242;-72
2021/03/22 08:40:40;;;;;;;16.10;6.53;;;6.80;1.00;;;;;;5094286;28;20175;-72
2021/03/22 08:43:27;;;;;;;17.98;4.88;;;6.70;1.00;;;;;;5093610;28;20199;-73
2021/03/22 08:46:25;;;;;;;14.00;5.88;;;6.50;1.00;;;;;;5094922;28;20673;-73
2021/03/22 08:48:50;;;;;;;11.95;4.75;;;6.70;1.00;;;;;;5094112;28;20295;-71
2021/03/22 08:51:35;;;;;;;11.23;4.03;;;6.60;1.00;;;;;;5094012;28;20727;-69
2021/03/22 08:54:01;;;;;;;9.98;4.22;;;6.50;1.00;;;;;;5093307;28;20254;-69
2021/03/22 08:56:42;;;;;;;13.45;5.65;;;6.60;1.00;;;;;;5093613;28;20708;-72
2021/03/22 08:59:10;;;;;;;9.52;3.60;;;6.80;1.00;;;;;;5094280;28;20647;-72
2021/03/22 09:01:38;;;;;;;11.20;4.53;;;6.90;1.00;;;;;;5093856;28;20280;-71
2021/03/22 09:04:12;;;;;;;9.27;4.95;;;7.10;1.00;;;;;;5093620;28;20194;-70
2021/03/22 09:07:01;;;;;;;9.77;4.47;;;7.20;1.00;;;;;;5093585;28;20504;-70
2021/03/22 09:09:30;;;;;;;7.80;4.70;;;7.20;1.00;;;;;;5093406;28;20198;-70
2021/03/22 09:11:59;;;;;;;16.75;8.40;;;7.00;1.00;;;;;;5092903;28;20774;-73
2021/03/22 09:14:27;;;;;;;32.75;10.15;;;6.50;1.00;;;;;;5093721;28;20168;-70
2021/03/22 09:16:54;;;;;;;15.40;9.20;;;6.50;1.00;;;;;;5092322;28;20221;-72
2021/03/22 09:19:20;;;;;;;19.50;10.40;;;6.80;1.00;;;;;;5093330;28;20175;-72
2021/03/22 09:21:54;;;;;;;29.63;9.27;;;6.60;1.00;;;;;;5093135;28;20190;-72
2021/03/22 09:24:41;;;;;;;12.55;6.82;;;6.60;1.00;;;;;;5094099;28;20553;-73
2021/03/22 09:27:22;;;;;;;18.17;7.00;;;7.00;1.00;;;;;;5093769;28;20167;-72
2021/03/22 09:29:57;;;;;;;137.65;81.70;;;7.30;1.00;;;;;;5093374;28;20667;-72
2021/03/22 09:32:34;;;;;;;404.00;320.02;;;7.80;1.00;;;;;;5092669;28;20182;-73
2021/03/22 09:35:25;;;;;;;12.07;6.72;;;7.80;1.00;;;;;;5094241;28;20152;-73
2021/03/22 09:38:21;;;;;;;9.18;5.07;;;7.50;1.00;;;;;;5099502;28;20148;-72
2021/03/22 09:40:50;;;;;;;10.05;7.13;;;7.00;1.00;;;;;;5092099;28;20201;-72
2021/03/22 09:43:18;;;;;;;14.60;4.70;;;7.30;1.00;;;;;;5092966;28;20529;-74
2021/03/22 09:45:53;;;;;;;10.70;4.97;;;7.70;1.00;;;;;;5097992;28;20163;-73
2021/03/22 09:48:29;;;;;;;12.40;5.40;;;7.70;1.00;;;;;;5095636;28;20166;-72
2021/03/22 09:51:02;;;;;;;10.10;3.90;;;7.50;1.00;;;;;;5094064;28;20628;-71
2021/03/22 09:53:49;;;;;;;7.30;4.30;;;7.80;1.00;;;;;;5096200;28;20236;-72
2021/03/22 09:56:35;;;;;;;10.55;4.53;;;7.20;1.00;;;;;;5094825;28;20520;-71
2021/03/22 09:59:26;;;;;;;9.45;3.75;;;7.40;1.00;;;;;;5096936;28;20183;-71
2021/03/22 10:01:57;;;;;;;7.03;4.00;;;7.60;1.00;;;;;;5095435;28;20274;-73
2021/03/22 10:04:31;;;;;;;7.90;5.03;;;7.60;1.00;;;;;;5095848;28;20517;-72
2021/03/22 10:07:27;;;;;;;7.30;4.60;;;7.70;1.00;;;;;;5096879;28;20168;-71
2021/03/22 10:10:00;;;;;;;6.35;3.42;;;7.90;1.00;;;;;;5093324;28;20214;-71
2021/03/22 10:12:36;;;;;;;6.55;3.50;;;7.90;1.00;;;;;;5092765;28;20179;-73
2021/03/22 10:15:13;;;;;;;8.35;4.10;;;8.10;1.00;;;;;;5093277;28;20151;-73
2021/03/22 10:17:47;;;;;;;5.32;2.85;;;8.10;1.00;;;;;;5092983;28;20220;-74
2021/03/22 10:20:36;;;;;;;14.90;3.72;;;8.10;1.00;;;;;;5093299;28;20160;-70
2021/03/22 10:23:06;;;;;;;7.15;3.13;;;7.90;1.00;;;;;;5096758;28;20191;-73
2021/03/22 10:25:34;;;;;;;11.70;3.90;;;8.20;1.00;;;;;;5093384;28;20158;-71
2021/03/22 10:28:06;;;;;;;8.40;3.13;;;8.30;1.00;;;;;;5097338;28;20311;-73
2021/03/22 10:30:34;;;;;;;5.30;3.60;;;8.30;1.00;;;;;;5095920;28;20543;-73
2021/03/22 10:33:02;;;;;;;4.85;2.75;;;8.50;1.00;;;;;;5094570;28;20232;-74
2021/03/22 10:35:43;;;;;;;6.65;2.65;;;8.40;1.00;;;;;;5096145;28;20179;-73
2021/03/22 10:38:17;;;;;;;4.40;1.98;;;8.50;1.00;;;;;;5094865;28;20167;-73
2021/03/22 10:40:43;;;;;;;6.85;3.50;;;8.50;1.00;;;;;;5093941;28;20176;-71
2021/03/22 10:43:40;;;;;;;7.40;3.33;;;8.20;1.00;;;;;;5094098;28;20211;-74
2021/03/22 10:46:19;;;;;;;7.70;4.82;;;8.20;1.00;;;;;;5093375;28;20246;-72
2021/03/22 10:48:46;;;;;;;6.50;4.00;;;8.20;1.00;;;;;;5092987;28;20705;-70
2021/03/22 10:51:15;;;;;;;5.80;4.25;;;8.30;1.00;;;;;;5092574;28;20206;-70
2021/03/22 10:53:59;;;;;;;5.47;3.53;;;8.60;1.00;;;;;;5092038;28;20183;-70
2021/03/22 10:56:42;;;;;;;5.43;3.45;;;8.70;1.00;;;;;;5092590;28;20164;-72
2021/03/22 10:59:15;;;;;;;6.30;4.57;;;8.60;1.00;;;;;;5092784;28;20167;-70
2021/03/22 11:01:41;;;;;;;5.50;3.80;;;8.70;1.00;;;;;;5092067;28;20156;-69
2021/03/22 11:04:14;;;;;;;12.33;3.77;;;8.70;1.00;;;;;;5092068;28;20219;-69
2021/03/22 11:06:41;;;;;;;5.97;3.03;;;8.80;1.00;;;;;;5091886;28;20632;-70
2021/03/22 11:09:17;;;;;;;4.80;3.10;;;8.80;1.00;;;;;;5091564;28;20200;-69
2021/03/22 11:11:42;;;;;;;6.20;3.75;;;8.80;1.00;;;;;;5092138;28;20152;-68
2021/03/22 11:14:13;;;;;;;6.80;3.23;;;8.50;1.00;;;;;;5092153;28;20631;-68
2021/03/22 11:16:42;;;;;;;5.22;2.30;;;8.60;1.00;;;;;;5093727;28;20164;-68
2021/03/22 11:19:35;;;;;;;9.25;2.92;;;8.60;1.00;;;;;;5095798;28;20268;-69
2021/03/22 11:22:01;;;;;;;6.87;2.27;;;8.50;1.00;;;;;;5096139;28;20266;-69
2021/03/22 11:24:39;;;;;;;5.00;3.00;;;8.30;1.00;;;;;;5097867;28;20958;-70
2021/03/22 11:27:08;;;;;;;5.68;3.05;;;8.50;1.00;;;;;;5095574;28;20401;-69
2021/03/22 11:30:02;;;;;;;7.82;2.60;;;8.20;1.00;;;;;;5095776;28;20560;-68
2021/03/22 11:32:31;;;;;;;6.45;2.90;;;8.10;1.00;;;;;;5095712;28;20693;-69
2021/03/22 11:34:57;;;;;;;10.02;2.75;;;7.80;1.00;;;;;;5095517;28;20171;-69
2021/03/22 11:37:30;;;;;;;11.35;3.60;;;7.80;1.00;;;;;;5095617;28;20164;-69
2021/03/22 11:39:55;;;;;;;8.13;3.25;;;8.10;1.00;;;;;;5094942;28;20159;-68
2021/03/22 11:42:30;;;;;;;6.67;4.10;;;8.50;1.00;;;;;;5094990;28;20199;-68
2021/03/22 11:44:56;;;;;;;6.10;3.38;;;8.40;1.00;;;;;;5095309;28;20166;-68
2021/03/22 11:47:26;;;;;;;9.47;3.80;;;8.20;1.00;;;;;;5094718;28;20183;-69
2021/03/22 11:49:55;;;;;;;7.78;3.97;;;7.80;1.00;;;;;;5094497;28;20444;-68
2021/03/22 11:52:30;;;;;;;6.90;4.10;;;7.80;1.00;;;;;;5094784;28;20188;-69
2021/03/22 11:54:58;;;;;;;10.35;3.60;;;8.00;1.00;;;;;;5095329;28;20167;-68
2021/03/22 11:57:29;;;;;;;7.13;4.20;;;8.20;1.00;;;;;;5095051;28;20217;-68
2021/03/22 12:00:22;;;;;;;10.90;4.05;;;8.00;1.00;;;;;;5094761;28;20576;-69
2021/03/22 12:02:49;;;;;;;7.13;3.50;;;8.20;1.00;;;;;;5095090;28;20223;-69
2021/03/22 12:05:25;;;;;;;5.97;3.63;;;8.30;1.00;;;;;;5094690;28;20220;-69
2021/03/22 12:07:51;;;;;;;10.88;4.65;;;8.30;1.00;;;;;;5094517;28;20167;-69
2021/03/22 12:10:27;;;;;;;8.43;4.37;;;8.60;1.00;;;;;;5095147;28;20197;-69
2021/03/22 12:12:59;;;;;;;9.52;5.38;;;8.20;1.00;;;;;;5094908;28;20183;-69
2021/03/22 12:15:26;;;;;;;9.43;6.28;;;8.10;1.00;;;;;;5094837;28;20152;-68
2021/03/22 12:18:04;;;;;;;7.82;5.15;;;8.00;1.00;;;;;;5094486;28;20202;-68
2021/03/22 12:20:31;;;;;;;6.78;5.90;;;7.90;1.00;;;;;;5094527;28;20179;-69
2021/03/22 12:22:57;;;;;;;11.32;5.80;;;8.00;1.00;;;;;;5094026;28;20656;-68
2021/03/22 12:25:29;;;;;;;5.93;5.05;;;8.10;1.00;;;;;;5094299;28;20677;-67
2021/03/22 12:27:55;;;;;;;8.77;5.38;;;8.20;1.00;;;;;;5094423;28;20155;-69
2021/03/22 12:30:23;;;;;;;8.30;5.80;;;8.40;1.00;;;;;;5094003;28;20664;-69
2021/03/22 12:32:49;;;;;;;11.35;6.03;;;8.60;1.00;;;;;;5093875;28;20546;-69
2021/03/22 12:35:24;;;;;;;7.63;4.10;;;8.40;1.00;;;;;;5094347;28;20163;-69
2021/03/22 12:37:50;;;;;;;7.00;4.45;;;8.80;1.00;;;;;;5094195;28;20238;-69
2021/03/22 12:40:17;;;;;;;5.00;3.58;;;9.00;1.00;;;;;;5094242;28;20164;-69
2021/03/22 12:42:44;;;;;;;8.65;3.58;;;9.10;1.00;;;;;;5094261;28;20277;-71
2021/03/22 12:45:27;;;;;;;9.57;3.97;;;9.00;1.00;;;;;;5094482;28;20232;-69
2021/03/22 12:47:54;;;;;;;5.63;3.95;;;8.60;1.00;;;;;;5093859;28;20163;-70
2021/03/22 12:50:35;;;;;;;5.15;3.38;;;8.50;1.00;;;;;;5094274;28;20284;-69
2021/03/22 12:53:01;;;;;;;5.85;3.47;;;8.50;1.00;;;;;;5093928;28;20198;-69
2021/03/22 12:55:28;;;;;;;8.57;6.60;;;8.40;1.00;;;;;;5093949;28;20168;-69
2021/03/22 12:57:56;;;;;;;6.97;4.05;;;8.50;1.00;;;;;;5093857;28;20405;-70
2021/03/22 13:00:24;;;;;;;11.68;6.00;;;8.70;1.00;;;;;;5093978;28;20179;-69
2021/03/22 13:02:49;;;;;;;10.23;6.22;;;8.50;1.00;;;;;;5093600;28;20194;-69
2021/03/22 13:05:20;;;;;;;9.63;4.80;;;8.40;1.00;;;;;;5093635;28;20172;-70
2021/03/22 13:07:46;;;;;;;8.95;4.85;;;8.30;1.00;;;;;;5093590;28;20524;-70
2021/03/22 13:10:13;;;;;;;6.32;3.60;;;8.20;1.00;;;;;;5094817;28;20222;-70
2021/03/22 13:12:39;;;;;;;6.03;4.13;;;8.20;1.00;;;;;;5093260;28;20676;-69
2021/03/22 13:15:07;;;;;;;6.20;3.70;;;8.20;1.00;;;;;;5094050;28;20171;-68
2021/03/22 13:17:34;;;;;;;10.00;3.90;;;8.20;1.00;;;;;;5093404;28;20259;-70
2021/03/22 13:20:03;;;;;;;7.03;4.25;;;8.40;1.00;;;;;;5093256;28;20168;-69
2021/03/22 13:22:30;;;;;;;10.07;4.22;;;8.40;1.00;;;;;;5093464;28;20201;-70
2021/03/22 13:24:56;;;;;;;5.95;4.00;;;8.50;1.00;;;;;;5093582;28;20199;-70